createdAt,value
2019-05-13T00:13:40.299Z,16.97
2019-05-13T00:33:48.236Z,13.11
2019-05-13T00:53:57.713Z,12.86
2019-05-13T01:14:07.093Z,14.63
2019-05-13T01:34:16.577Z,17.16
2019-05-13T01:54:26.021Z,21.74
2019-05-13T02:14:35.377Z,21.91
2019-05-13T02:34:44.694Z,16.61
2019-05-13T02:54:54.136Z,15.56
2019-05-13T03:15:08.236Z,15.68
2019-05-13T03:35:09.178Z,17.38
2019-05-13T03:55:08.762Z,15.86
2019-05-13T04:15:18.350Z,16.06
2019-05-13T04:35:27.920Z,15.99
2019-05-13T04:55:37.395Z,19.52
2019-05-13T05:15:46.748Z,16.28
2019-05-13T05:35:54.930Z,17.37
2019-05-13T05:56:04.395Z,17.64
2019-05-13T06:16:13.841Z,13.50
2019-05-13T06:36:26.312Z,13.51
2019-05-13T06:56:25.832Z,12.46
2019-05-13T07:16:42.064Z,12.48
2019-05-13T07:36:39.098Z,15.53
2019-05-13T07:56:48.458Z,10.85
2019-05-13T08:16:57.835Z,8.35
2019-05-13T08:37:11.781Z,9.87
2019-05-13T08:57:11.891Z,8.70
2019-05-13T09:17:21.363Z,6.07
2019-05-13T09:37:31.641Z,6.33
2019-05-13T09:57:38.145Z,8.76
2019-05-13T10:17:52.520Z,8.18
2019-05-13T10:37:48.733Z,11.51
2019-05-13T10:57:58.177Z,14.93
2019-05-13T11:18:14.247Z,7.54
2019-05-13T11:38:16.475Z,10.32
2019-05-13T11:58:26.001Z,9.83
2019-05-13T12:18:43.131Z,6.92
2019-05-13T12:38:44.570Z,8.38
2019-05-13T12:58:56.002Z,7.97
2019-05-13T13:18:55.459Z,7.27
2019-05-13T13:39:04.890Z,6.81
2019-05-13T13:59:14.494Z,7.37
2019-05-13T14:19:23.796Z,7.82
2019-05-13T14:39:35.861Z,9.21
2019-05-13T14:59:42.297Z,9.26
2019-05-13T15:19:52.454Z,9.30
2019-05-13T15:40:02.329Z,10.84
2019-05-13T16:00:08.234Z,15.09
2019-05-13T16:20:17.918Z,14.93
2019-05-13T16:40:27.368Z,13.96
2019-05-13T17:00:39.198Z,11.78
2019-05-13T17:20:38.730Z,8.85
2019-05-13T17:40:50.147Z,10.50
2019-05-13T18:00:58.183Z,10.92
2019-05-13T18:20:57.789Z,11.20
2019-05-13T18:41:12.655Z,13.35
2019-05-13T19:01:12.336Z,10.29
2019-05-13T19:21:22.070Z,9.50
2019-05-13T19:41:31.613Z,9.78
2019-05-13T20:01:42.299Z,13.90
2019-05-13T20:21:51.738Z,10.14
2019-05-13T20:42:01.118Z,11.47
2019-05-13T21:02:06.638Z,12.02
2019-05-13T21:22:15.968Z,14.57
2019-05-13T21:42:25.332Z,21.49
2019-05-13T22:02:34.720Z,17.08
2019-05-13T22:22:44.070Z,16.30
2019-05-13T22:42:56.603Z,17.78
2019-05-13T23:03:07.076Z,19.46
2019-05-13T23:23:08.820Z,19.21
2019-05-13T23:43:08.303Z,20.56
